Time;durP1;ratioP1;P1;durP2;ratioP2;P2;SDS_P1;SDS_P2;PMS_P1;PMS_P2;Temp;Humidity;BMP_temperature;BMP_pressure;BME280_temperature;BME280_humidity;BME280_pressure;Samples;Min_cycle;Max_cycle;Signal;HPM_P1;HPM_P2
2022/12/05 00:01:30;;;;;;;9.30;8.03;;;;;;;6.79;67.78;95815.97;5028237;28;20226;-65
2022/12/05 00:03:59;;;;;;;10.47;8.23;;;;;;;6.83;67.60;95814.78;5038858;28;20236;-66
2022/12/05 00:06:27;;;;;;;9.33;7.90;;;;;;;6.89;67.67;95817.91;5037791;28;20197;-66
2022/12/05 00:08:52;;;;;;;10.03;7.97;;;;;;;6.94;67.05;95815.81;5032654;28;20190;-66
2022/12/05 00:11:20;;;;;;;9.87;7.87;;;;;;;6.79;67.45;95809.88;5054534;28;20241;-66
2022/12/05 00:13:47;;;;;;;11.07;7.73;;;;;;;6.80;67.24;95816.78;5040342;28;20264;-67
2022/12/05 00:16:16;;;;;;;9.93;7.37;;;;;;;6.76;67.72;95817.94;5032843;28;20230;-67
2022/12/05 00:18:42;;;;;;;8.93;8.00;;;;;;;6.74;67.71;95825.91;5020849;28;20221;-67
2022/12/05 00:21:13;;;;;;;10.13;7.87;;;;;;;6.71;67.51;95822.66;5016177;28;20205;-67
2022/12/05 00:23:40;;;;;;;10.57;8.60;;;;;;;6.65;67.79;95820.47;5015825;28;20210;-67
2022/12/05 00:26:05;;;;;;;12.53;7.87;;;;;;;6.71;67.47;95830.50;5017888;28;20233;-66
2022/12/05 00:28:33;;;;;;;11.33;8.40;;;;;;;6.55;68.20;95826.38;5024386;28;20229;-67
2022/12/05 00:31:06;;;;;;;11.87;8.60;;;;;;;6.57;67.88;95823.63;5019854;28;20240;-67
2022/12/05 00:33:32;;;;;;;11.20;8.40;;;;;;;6.53;68.37;95832.66;5022907;28;20230;-67
2022/12/05 00:36:07;;;;;;;10.67;8.93;;;;;;;6.47;68.36;95835.66;5021355;28;20296;-65
2022/12/05 00:38:33;;;;;;;8.87;7.70;;;;;;;6.48;68.58;95830.34;5023959;28;20229;-66
2022/12/05 00:41:07;;;;;;;10.40;8.90;;;;;;;6.58;68.10;95831.38;5022188;28;20227;-66
2022/12/05 00:43:33;;;;;;;10.83;8.53;;;;;;;6.55;68.26;95826.38;5020846;28;20241;-65
2022/12/05 00:46:07;;;;;;;10.63;8.97;;;;;;;6.62;67.90;95835.44;5020659;28;20304;-66
2022/12/05 00:48:33;;;;;;;12.80;9.17;;;;;;;6.59;67.97;95829.59;5018811;28;20295;-66
2022/12/05 00:51:12;;;;;;;11.93;8.73;;;;;;;6.62;67.99;95840.66;5025667;28;20198;-66
2022/12/05 00:53:38;;;;;;;10.97;8.10;;;;;;;6.66;67.68;95835.25;5038322;28;20221;-66
2022/12/05 00:56:10;;;;;;;11.70;8.60;;;;;;;6.60;67.78;95831.25;5025179;28;20253;-65
2022/12/05 00:58:37;;;;;;;11.17;8.93;;;;;;;6.62;68.21;95829.38;5023088;28;20321;-65
2022/12/05 01:01:16;;;;;;;11.93;8.70;;;;;;;6.68;67.73;95817.66;5023098;28;20242;-67
2022/12/05 01:03:42;;;;;;;12.03;9.33;;;;;;;6.63;68.07;95813.59;5014020;28;20328;-66
2022/12/05 01:06:09;;;;;;;11.30;8.43;;;;;;;6.62;67.95;95804.06;5034942;28;20195;-67
2022/12/05 01:08:35;;;;;;;12.83;9.20;;;;;;;6.53;68.34;95811.75;5020599;28;20195;-67
2022/12/05 01:11:01;;;;;;;12.53;8.70;;;;;;;6.53;68.10;95809.97;5037516;28;20218;-67
2022/12/05 01:13:27;;;;;;;11.70;8.53;;;;;;;6.48;68.23;95812.06;5019130;28;20227;-67
2022/12/05 01:15:53;;;;;;;11.40;9.40;;;;;;;6.49;68.06;95805.03;5018715;28;20226;-67
2022/12/05 01:18:20;;;;;;;14.40;9.87;;;;;;;6.46;68.31;95818.31;5019285;28;20206;-67
2022/12/05 01:20:45;;;;;;;12.33;8.67;;;;;;;6.45;68.80;95817.50;5019567;28;20233;-67
2022/12/05 01:23:11;;;;;;;10.37;8.63;;;;;;;6.45;68.64;95814.88;5022997;28;20226;-67
2022/12/05 01:25:41;;;;;;;10.13;8.37;;;;;;;6.49;68.97;95813.72;5020757;28;20296;-67
2022/12/05 01:28:08;;;;;;;10.43;8.20;;;;;;;6.45;68.84;95819.28;5019300;28;20237;-67
2022/12/05 01:30:37;;;;;;;10.83;7.93;;;;;;;6.52;68.57;95802.22;5018697;28;20197;-65
2022/12/05 01:33:03;;;;;;;9.37;7.80;;;;;;;6.51;68.72;95796.16;5032259;28;20226;-65
2022/12/05 01:35:34;;;;;;;8.83;7.63;;;;;;;6.54;68.91;95797.72;5026004;28;20214;-66
2022/12/05 01:38:00;;;;;;;8.97;8.03;;;;;;;6.51;68.88;95804.00;5016830;28;20221;-66
2022/12/05 01:40:25;;;;;;;8.83;7.57;;;;;;;6.53;68.57;95790.84;5024107;28;20225;-67
2022/12/05 01:42:51;;;;;;;10.90;8.87;;;;;;;6.57;68.82;95792.28;5023437;28;20217;-66
2022/12/05 01:45:25;;;;;;;10.07;8.97;;;;;;;6.54;69.07;95784.66;5023118;28;20182;-66
2022/12/05 01:47:53;;;;;;;10.70;8.17;;;;;;;6.59;68.71;95780.78;5019134;28;20245;-66
2022/12/05 01:50:19;;;;;;;9.80;8.27;;;;;;;6.57;68.81;95787.88;5020677;28;20222;-66
2022/12/05 01:52:44;;;;;;;8.73;7.63;;;;;;;6.47;69.09;95779.03;5023189;28;20261;-66
2022/12/05 01:55:13;;;;;;;9.33;7.50;;;;;;;6.51;68.78;95777.88;5030799;28;20250;-66
2022/12/05 01:57:40;;;;;;;11.10;8.33;;;;;;;6.52;68.59;95778.69;5020473;28;20254;-66
2022/12/05 02:00:12;;;;;;;10.00;7.73;;;;;;;6.47;69.18;95781.66;5018952;28;20186;-66
2022/12/05 02:02:43;;;;;;;10.70;8.20;;;;;;;6.46;69.24;95795.66;5020537;28;20253;-67
2022/12/05 02:05:22;;;;;;;8.83;7.83;;;;;;;6.50;69.22;95788.44;5034033;28;20234;-66
2022/12/05 02:07:47;;;;;;;10.20;8.63;;;;;;;6.53;69.10;95783.81;5018798;28;20261;-66
2022/12/05 02:10:13;;;;;;;10.17;8.47;;;;;;;6.52;69.02;95776.94;5021643;28;20237;-66
2022/12/05 02:12:40;;;;;;;10.87;8.90;;;;;;;6.55;68.84;95784.56;5017469;28;20190;-65
2022/12/05 02:15:15;;;;;;;10.47;8.30;;;;;;;6.52;68.92;95787.41;5021115;28;20194;-65
2022/12/05 02:18:01;;;;;;;10.90;8.13;;;;;;;6.60;69.08;95797.28;5022008;28;20229;-67
2022/12/05 02:20:53;;;;;;;9.53;7.97;;;;;;;6.60;68.77;95792.06;5022508;28;20308;-66
2022/12/05 02:23:24;;;;;;;8.83;7.67;;;;;;;6.54;69.26;95782.88;5021464;28;20227;-66
2022/12/05 02:26:05;;;;;;;10.83;8.60;;;;;;;6.55;68.86;95788.97;5023128;28;20705;-66
2022/12/05 02:29:08;;;;;;;10.00;8.23;;;;;;;6.59;69.19;95793.84;5042753;28;20274;-66
2022/12/05 02:32:04;;;;;;;11.33;8.70;;;;;;;6.57;69.12;95789.66;5043548;28;20221;-66
2022/12/05 02:35:02;;;;;;;12.00;8.77;;;;;;;6.64;68.96;95783.06;5050891;28;20244;-66
2022/12/05 02:37:33;;;;;;;11.03;8.67;;;;;;;6.64;68.99;95788.28;5039313;28;20237;-66
2022/12/05 02:40:15;;;;;;;9.27;7.93;;;;;;;6.53;69.26;95781.22;5043951;28;20228;-66
2022/12/05 02:42:52;;;;;;;9.87;8.17;;;;;;;6.54;69.37;95776.81;5045920;28;20213;-66
2022/12/05 02:45:22;;;;;;;10.70;8.03;;;;;;;6.50;69.61;95778.81;5057049;28;20224;-67
2022/12/05 02:47:52;;;;;;;9.47;7.83;;;;;;;6.47;69.47;95780.78;5044361;28;20234;-66
2022/12/05 02:50:29;;;;;;;10.63;8.87;;;;;;;6.55;69.48;95768.06;5038629;28;20316;-68
2022/12/05 02:52:59;;;;;;;9.77;8.20;;;;;;;6.57;69.23;95766.97;5041516;28;20221;-67
2022/12/05 02:55:27;;;;;;;9.27;7.73;;;;;;;6.56;69.49;95769.72;5038369;28;20226;-66
2022/12/05 02:57:57;;;;;;;9.60;7.80;;;;;;;6.59;69.42;95769.50;5043067;28;20233;-67
2022/12/05 03:00:23;;;;;;;10.07;8.23;;;;;;;6.55;69.52;95760.22;5054504;28;20229;-66
2022/12/05 03:02:54;;;;;;;8.73;7.83;;;;;;;6.60;69.35;95755.47;5039566;28;20299;-66
2022/12/05 03:05:27;;;;;;;10.70;8.27;;;;;;;6.62;69.04;95764.88;5058604;28;20257;-67
2022/12/05 03:07:56;;;;;;;9.10;8.03;;;;;;;6.72;68.81;95759.84;5030734;28;20222;-66
2022/12/05 03:10:26;;;;;;;10.10;8.57;;;;;;;6.70;68.95;95766.13;5024394;28;20320;-67
2022/12/05 03:12:59;;;;;;;11.00;7.60;;;;;;;6.68;68.76;95762.75;5027085;28;20174;-67
2022/12/05 03:15:30;;;;;;;11.27;8.50;;;;;;;6.66;69.02;95768.13;5044524;28;20672;-67
2022/12/05 03:18:05;;;;;;;12.30;8.60;;;;;;;6.71;68.87;95767.78;5043216;28;20247;-66
2022/12/05 03:21:07;;;;;;;11.47;8.53;;;;;;;6.71;68.91;95766.00;5045644;28;20213;-66
2022/12/05 03:23:35;;;;;;;10.57;8.27;;;;;;;6.69;68.88;95767.06;5044124;28;20221;-66
2022/12/05 03:26:03;;;;;;;10.73;8.33;;;;;;;6.73;68.93;95763.28;5044181;28;20316;-66
2022/12/05 03:28:57;;;;;;;10.20;8.07;;;;;;;6.69;69.16;95759.22;5044786;28;20240;-67
2022/12/05 03:31:41;;;;;;;10.20;8.50;;;;;;;6.73;68.95;95776.34;5039015;28;20597;-66
2022/12/05 03:34:14;;;;;;;10.67;8.87;;;;;;;6.74;68.92;95776.25;5036114;28;20217;-66
2022/12/05 03:36:44;;;;;;;13.33;8.63;;;;;;;6.66;69.31;95767.28;5035921;28;20279;-66
2022/12/05 03:39:35;;;;;;;11.07;8.73;;;;;;;6.52;69.29;95766.50;5043323;28;20186;-66
2022/12/05 03:42:12;;;;;;;13.67;9.23;;;;;;;6.65;68.80;95768.22;5041313;28;20229;-66
2022/12/05 03:44:59;;;;;;;10.33;8.30;;;;;;;6.55;69.15;95779.34;5055722;28;20221;-66
2022/12/05 03:47:43;;;;;;;10.90;8.67;;;;;;;6.64;69.10;95767.38;5032241;28;20226;-66
2022/12/05 03:50:28;;;;;;;10.93;8.30;;;;;;;6.65;68.76;95763.81;5041374;28;20186;-67
2022/12/05 03:53:02;;;;;;;11.57;8.17;;;;;;;6.73;68.54;95776.34;5041970;28;20186;-67
2022/12/05 03:55:32;;;;;;;10.60;8.10;;;;;;;6.62;68.71;95775.31;5033000;28;20214;-67
2022/12/05 03:58:04;;;;;;;10.80;7.60;;;;;;;6.71;68.63;95788.69;5038733;28;20193;-67
2022/12/05 04:00:35;;;;;;;10.33;8.40;;;;;;;6.63;68.71;95777.00;5042208;28;20193;-66
2022/12/05 04:03:10;;;;;;;9.20;8.20;;;;;;;6.66;68.71;95777.75;5039816;28;20209;-66
2022/12/05 04:05:48;;;;;;;13.03;9.00;;;;;;;6.65;68.51;95774.28;5043511;28;20298;-66
2022/12/05 04:08:21;;;;;;;10.70;7.93;;;;;;;6.74;68.25;95773.63;5039381;28;20197;-67
2022/12/05 04:10:50;;;;;;;10.23;8.10;;;;;;;6.48;69.38;95779.88;5042040;28;20186;-66
2022/12/05 04:13:56;;;;;;;10.67;8.43;;;;;;;6.63;69.04;95770.97;5042008;28;20283;-67
2022/12/05 04:19:26;;;;;;;12.67;8.67;;;;;;;6.68;68.56;95762.75;5006180;28;20229;-66
2022/12/05 04:21:55;;;;;;;10.30;7.97;;;;;;;6.66;68.52;95759.44;4985148;28;20222;-66
2022/12/05 04:28:10;;;;;;;11.30;8.60;;;;;;;6.66;68.56;95760.28;5005168;28;20213;-66
2022/12/05 04:30:38;;;;;;;10.57;8.03;;;;;;;6.67;68.51;95758.50;4948328;29;20199;-66
2022/12/05 04:33:13;;;;;;;10.90;8.50;;;;;;;6.76;68.37;95755.22;4930907;29;20204;-66
2022/12/05 04:35:47;;;;;;;10.80;8.20;;;;;;;6.70;68.70;95756.50;4933095;29;20204;-66
2022/12/05 04:38:20;;;;;;;11.60;9.03;;;;;;;6.63;69.12;95757.88;4948535;29;20204;-66
2022/12/05 04:40:58;;;;;;;11.77;9.13;;;;;;;6.58;69.16;95758.22;4931081;29;20283;-65
2022/12/05 04:43:25;;;;;;;12.83;9.10;;;;;;;6.63;68.90;95769.16;4948412;28;20224;-65
2022/12/05 04:45:53;;;;;;;11.40;8.83;;;;;;;6.49;69.38;95773.69;4943125;28;20202;-65
2022/12/05 04:48:21;;;;;;;12.33;9.00;;;;;;;6.55;69.29;95779.34;4932247;29;20193;-66
2022/12/05 04:50:49;;;;;;;10.73;8.60;;;;;;;6.62;69.07;95777.94;4932768;29;20197;-65
2022/12/05 04:53:16;;;;;;;13.73;9.43;;;;;;;6.65;69.12;95781.28;4942270;28;20208;-65
2022/12/05 04:55:47;;;;;;;13.70;9.47;;;;;;;6.63;69.00;95777.00;4961311;28;20394;-65
2022/12/05 04:58:24;;;;;;;11.63;8.80;;;;;;;6.54;69.30;95772.41;4944165;28;20271;-65
2022/12/05 05:00:53;;;;;;;13.77;9.73;;;;;;;6.59;69.08;95780.78;4963735;28;20196;-65
2022/12/05 05:03:31;;;;;;;12.30;8.97;;;;;;;6.56;69.17;95774.94;4961004;28;20217;-65
2022/12/05 05:05:57;;;;;;;11.87;9.00;;;;;;;6.69;69.45;95780.13;5044648;28;20229;-65
2022/12/05 05:08:29;;;;;;;14.00;9.93;;;;;;;6.67;69.04;95789.84;5041533;28;20243;-65
2022/12/05 05:11:09;;;;;;;13.77;9.17;;;;;;;6.70;68.77;95787.03;5044255;28;20200;-66
2022/12/05 05:13:34;;;;;;;12.47;9.27;;;;;;;6.73;68.66;95784.19;5036584;28;20181;-66
2022/12/05 05:16:00;;;;;;;10.33;8.47;;;;;;;6.74;68.75;95791.09;5036226;28;20190;-68
2022/12/05 05:18:25;;;;;;;11.10;8.20;;;;;;;6.69;68.79;95791.41;5037063;28;20200;-67
2022/12/05 05:20:51;;;;;;;12.83;9.53;;;;;;;6.73;68.77;95802.47;5038923;28;20197;-65
2022/12/05 05:23:16;;;;;;;11.87;8.50;;;;;;;6.67;68.70;95795.09;5039639;28;20463;-65
2022/12/05 05:25:42;;;;;;;12.07;9.00;;;;;;;6.71;68.67;95804.34;5039009;28;20189;-66
2022/12/05 05:28:07;;;;;;;12.87;9.67;;;;;;;6.85;68.45;95804.22;5037910;28;20201;-66
2022/12/05 05:30:32;;;;;;;12.00;8.60;;;;;;;6.83;68.10;95809.56;5044696;28;20193;-66
2022/12/05 05:32:59;;;;;;;12.20;8.73;;;;;;;6.82;68.38;95805.28;5044027;28;20188;-66
2022/12/05 05:35:24;;;;;;;10.50;7.90;;;;;;;6.85;68.31;95812.91;5041084;28;20189;-66
2022/12/05 05:37:50;;;;;;;11.87;8.27;;;;;;;6.84;68.32;95805.16;5044609;28;20220;-66
2022/12/05 05:40:16;;;;;;;13.33;9.20;;;;;;;6.84;67.88;95800.78;5037585;28;20224;-67
2022/12/05 05:42:45;;;;;;;11.10;8.20;;;;;;;6.85;68.15;95801.63;5043613;28;20197;-66
2022/12/05 05:45:12;;;;;;;13.03;8.63;;;;;;;6.85;67.85;95801.63;5042320;28;20189;-67
2022/12/05 05:47:38;;;;;;;12.47;8.60;;;;;;;6.87;68.08;95806.72;5034161;28;20190;-67
2022/12/05 05:50:04;;;;;;;12.00;8.53;;;;;;;6.93;67.81;95816.75;5039059;28;20189;-67
2022/12/05 05:52:33;;;;;;;13.37;9.20;;;;;;;6.54;68.95;95809.00;5037457;28;20297;-66
2022/12/05 05:54:59;;;;;;;11.97;9.47;;;;;;;6.61;68.85;95809.41;5042345;28;20228;-67
2022/12/05 05:57:24;;;;;;;15.47;8.50;;;;;;;6.65;68.79;95805.63;5040277;28;20193;-67
2022/12/05 05:59:50;;;;;;;12.83;8.87;;;;;;;6.74;68.81;95814.63;5043509;28;20253;-65
2022/12/05 06:02:15;;;;;;;9.30;7.80;;;;;;;6.84;68.38;95815.63;5029147;28;20219;-66
2022/12/05 06:04:40;;;;;;;9.20;8.00;;;;;;;6.86;67.99;95811.13;5035039;28;20230;-66
2022/12/05 06:07:06;;;;;;;13.73;8.77;;;;;;;6.94;68.06;95828.88;5033793;28;20200;-66
2022/12/05 06:09:31;;;;;;;11.93;8.17;;;;;;;6.96;67.61;95825.22;5040925;28;20224;-66
2022/12/05 06:11:57;;;;;;;14.07;8.67;;;;;;;6.98;67.91;95823.31;5038592;28;20219;-66
2022/12/05 06:14:22;;;;;;;16.50;9.67;;;;;;;7.05;67.53;95828.94;5039047;28;20256;-67
2022/12/05 06:16:48;;;;;;;14.93;8.33;;;;;;;7.04;67.90;95833.34;5044494;28;20211;-67
2022/12/05 06:19:13;;;;;;;10.43;8.90;;;;;;;6.83;68.51;95832.25;5045974;28;20211;-67
2022/12/05 06:21:38;;;;;;;14.83;8.50;;;;;;;6.38;70.17;95829.31;5037041;28;20190;-66
2022/12/05 06:24:04;;;;;;;15.03;9.93;;;;;;;6.06;71.89;95824.50;5044958;28;20216;-68
2022/12/05 06:26:30;;;;;;;12.20;8.80;;;;;;;6.08;72.21;95822.63;5040855;28;20186;-67
2022/12/05 06:28:55;;;;;;;13.63;9.17;;;;;;;6.23;71.67;95820.75;5046086;28;20213;-70
2022/12/05 06:31:25;;;;;;;11.47;8.10;;;;;;;6.48;70.46;95822.50;5043044;28;20196;-68
2022/12/05 06:33:51;;;;;;;10.97;8.13;;;;;;;6.63;69.60;95825.84;5043269;28;20189;-68
2022/12/05 06:36:20;;;;;;;11.00;8.27;;;;;;;6.83;69.06;95825.25;5044137;28;20189;-69
2022/12/05 06:38:45;;;;;;;12.77;9.00;;;;;;;6.92;68.71;95822.91;5041747;28;20258;-69
2022/12/05 06:41:15;;;;;;;11.77;8.60;;;;;;;6.98;68.14;95831.16;5045663;28;20273;-69
2022/12/05 06:43:41;;;;;;;11.57;8.13;;;;;;;6.96;68.13;95825.22;5045614;28;20201;-69
2022/12/05 06:46:08;;;;;;;9.80;8.23;;;;;;;7.10;67.73;95837.28;5044672;28;20194;-69
2022/12/05 06:48:34;;;;;;;15.03;8.30;;;;;;;7.10;67.62;95832.06;5038765;28;20248;-70
2022/12/05 06:51:00;;;;;;;12.60;7.90;;;;;;;7.07;67.82;95840.97;5040362;28;20272;-70
2022/12/05 06:53:26;;;;;;;8.60;7.00;;;;;;;7.17;67.42;95840.31;5034551;28;20254;-69
2022/12/05 06:55:59;;;;;;;8.40;6.83;;;;;;;7.25;67.06;95835.34;5041384;28;20252;-69
2022/12/05 06:58:25;;;;;;;12.23;7.63;;;;;;;7.22;67.07;95833.81;5036361;28;20190;-69
2022/12/05 07:03:35;;;;;;;8.93;7.00;;;;;;;7.22;67.02;95830.34;5041777;28;20258;-68
2022/12/05 07:06:02;;;;;;;10.37;6.70;;;;;;;7.39;66.74;95839.59;5040290;28;20225;-66
2022/12/05 07:08:27;;;;;;;10.00;7.00;;;;;;;7.51;66.49;95836.06;5037788;28;20284;-66
2022/12/05 07:10:53;;;;;;;9.20;7.00;;;;;;;7.42;66.11;95829.72;5043964;28;20206;-62
2022/12/05 07:13:18;;;;;;;12.17;7.77;;;;;;;7.15;66.46;95827.34;5043428;28;20221;-62
2022/12/05 07:15:48;;;;;;;10.13;6.83;;;;;;;7.09;67.55;95840.03;5038180;28;20316;-63
2022/12/05 07:18:16;;;;;;;11.30;7.77;;;;;;;7.19;66.84;95838.41;5041705;28;20197;-64
2022/12/05 07:20:42;;;;;;;13.07;7.83;;;;;;;7.26;66.87;95839.63;5041388;28;20208;-64
2022/12/05 07:23:07;;;;;;;12.83;7.73;;;;;;;7.41;66.48;95835.91;5043153;28;20228;-64
2022/12/05 07:25:33;;;;;;;12.77;8.20;;;;;;;7.45;66.33;95834.72;5041827;28;20190;-64
2022/12/05 07:27:58;;;;;;;11.60;8.13;;;;;;;7.44;66.24;95846.16;5036919;28;20186;-64
2022/12/05 07:30:24;;;;;;;12.83;9.17;;;;;;;7.46;66.07;95836.41;5037139;28;20200;-62
2022/12/05 07:32:49;;;;;;;11.30;8.60;;;;;;;7.50;65.95;95850.91;5042315;28;20190;-63
2022/12/05 07:35:15;;;;;;;10.83;8.23;;;;;;;7.38;66.10;95857.06;5037986;28;20200;-63
2022/12/05 07:37:40;;;;;;;12.57;9.40;;;;;;;7.39;66.18;95852.66;5054219;28;20263;-63
2022/12/05 07:40:07;;;;;;;15.87;9.20;;;;;;;7.31;66.42;95853.22;5044361;28;20185;-62
2022/12/05 07:42:32;;;;;;;10.33;7.10;;;;;;;7.50;65.63;95853.53;5041600;28;20267;-63
2022/12/05 07:44:57;;;;;;;11.90;7.60;;;;;;;7.10;67.04;95849.53;5037916;28;20186;-61
2022/12/05 07:47:23;;;;;;;13.00;8.07;;;;;;;7.03;67.58;95852.59;5037863;28;20189;-62
2022/12/05 07:49:48;;;;;;;9.33;6.87;;;;;;;7.24;67.31;95862.44;5041068;28;20189;-62
2022/12/05 07:52:14;;;;;;;9.87;7.63;;;;;;;7.16;67.27;95864.78;5044708;28;20189;-62
2022/12/05 07:54:39;;;;;;;13.07;8.33;;;;;;;7.36;66.69;95865.97;5038159;28;20189;-63
2022/12/05 07:57:05;;;;;;;9.47;7.13;;;;;;;7.33;66.62;95861.81;5045831;28;20296;-61
2022/12/05 07:59:30;;;;;;;11.00;6.97;;;;;;;7.37;66.48;95865.03;5044084;28;20189;-61
2022/12/05 08:01:55;;;;;;;8.93;7.00;;;;;;;7.36;66.11;95856.34;5043438;28;20194;-62
2022/12/05 08:04:21;;;;;;;10.90;7.83;;;;;;;7.47;65.83;95856.38;5036898;28;20229;-64
2022/12/05 08:06:46;;;;;;;9.77;7.10;;;;;;;7.08;67.57;95847.03;5042918;28;20213;-62
2022/12/05 08:09:12;;;;;;;15.67;7.83;;;;;;;7.36;67.18;95850.28;5052245;28;20272;-61
2022/12/05 08:11:37;;;;;;;13.03;7.70;;;;;;;7.29;67.31;95852.50;5034077;28;20196;-61
2022/12/05 08:14:04;;;;;;;9.13;7.00;;;;;;;7.49;66.38;95851.88;5040586;28;20212;-63
2022/12/05 08:16:31;;;;;;;9.87;8.00;;;;;;;7.55;66.35;95852.38;5035853;28;20219;-63
2022/12/05 08:18:58;;;;;;;10.80;8.43;;;;;;;7.68;65.90;95847.91;5037305;28;20197;-64
2022/12/05 08:21:25;;;;;;;11.63;7.50;;;;;;;7.76;65.35;95849.97;5036605;28;20194;-63
2022/12/05 08:23:51;;;;;;;9.57;7.70;;;;;;;7.85;65.06;95854.50;5038765;28;20330;-62
2022/12/05 08:26:23;;;;;;;9.50;7.77;;;;;;;7.77;65.15;95857.69;5041534;28;20268;-64
2022/12/05 08:28:58;;;;;;;12.67;7.63;;;;;;;7.89;64.78;95851.56;5042403;28;20197;-62
2022/12/05 08:31:25;;;;;;;9.27;7.10;;;;;;;7.94;64.30;95852.03;5042479;28;20201;-62
2022/12/05 08:33:51;;;;;;;9.63;5.93;;;;;;;7.82;64.75;95854.75;5038598;28;20188;-62
2022/12/05 08:36:18;;;;;;;9.67;7.13;;;;;;;7.39;65.75;95857.91;5054879;28;20197;-64
2022/12/05 08:38:44;;;;;;;8.27;6.90;;;;;;;7.66;65.49;95849.81;5042494;28;20194;-63
2022/12/05 08:41:13;;;;;;;8.07;6.80;;;;;;;7.85;64.91;95855.34;5043277;28;20193;-64
2022/12/05 08:43:39;;;;;;;9.13;5.60;;;;;;;7.91;63.82;95852.28;5041492;28;20209;-65
2022/12/05 08:46:05;;;;;;;5.87;4.13;;;;;;;7.89;63.19;95851.56;5042018;28;20197;-65
2022/12/05 08:48:31;;;;;;;4.20;3.70;;;;;;;7.90;62.80;95841.91;5042767;28;20185;-65
2022/12/05 08:50:58;;;;;;;5.40;2.90;;;;;;;7.96;62.21;95846.66;5042400;28;20181;-64
2022/12/05 08:53:24;;;;;;;6.10;3.80;;;;;;;8.01;61.28;95854.19;5040525;28;20193;-67
2022/12/05 08:55:49;;;;;;;3.50;3.20;;;;;;;7.93;61.56;95855.59;5040270;28;20196;-64
2022/12/05 08:58:15;;;;;;;4.70;3.90;;;;;;;7.99;61.95;95858.69;5044362;28;20190;-64
2022/12/05 09:00:41;;;;;;;6.10;4.13;;;;;;;8.10;61.81;95859.59;5038327;28;20196;-64
2022/12/05 09:03:09;;;;;;;5.30;4.10;;;;;;;8.11;61.49;95849.94;5040984;28;20279;-65
2022/12/05 09:05:35;;;;;;;4.97;4.37;;;;;;;8.04;61.56;95860.03;5042325;28;20237;-66
2022/12/05 09:08:00;;;;;;;4.50;3.80;;;;;;;8.09;61.17;95851.81;5039196;28;20204;-67
2022/12/05 09:10:26;;;;;;;5.37;4.03;;;;;;;8.08;61.08;95843.13;5041554;28;20205;-68
2022/12/05 09:12:51;;;;;;;5.07;4.40;;;;;;;7.80;62.28;95849.59;5040807;28;20228;-65
2022/12/05 09:15:17;;;;;;;6.00;4.90;;;;;;;7.87;62.80;95852.63;5043121;28;20204;-65
2022/12/05 09:17:43;;;;;;;7.30;5.17;;;;;;;8.15;61.89;95846.97;5040520;28;20301;-65
2022/12/05 09:20:11;;;;;;;6.73;4.70;;;;;;;8.17;61.57;95849.47;5037377;28;20213;-67
2022/12/05 09:22:37;;;;;;;5.80;4.23;;;;;;;8.02;61.73;95848.00;5042190;28;20233;-67
2022/12/05 09:25:03;;;;;;;6.57;4.87;;;;;;;8.05;61.69;95837.31;5042706;28;20185;-66
2022/12/05 09:27:29;;;;;;;8.90;5.33;;;;;;;8.08;61.83;95834.44;5050380;28;20199;-66
2022/12/05 09:29:55;;;;;;;9.77;6.23;;;;;;;8.02;62.34;95834.91;5037508;28;20185;-65
2022/12/05 09:32:20;;;;;;;6.97;6.03;;;;;;;8.08;62.33;95835.28;5039129;28;20182;-66
2022/12/05 09:34:46;;;;;;;9.10;5.40;;;;;;;8.22;62.06;95829.00;5040053;28;20192;-66
2022/12/05 09:37:11;;;;;;;9.40;5.30;;;;;;;8.20;62.06;95835.28;5039822;28;20196;-66
2022/12/05 09:39:37;;;;;;;8.00;5.80;;;;;;;8.22;61.77;95834.22;5039180;28;20190;-66
2022/12/05 09:42:21;;;;;;;6.40;5.00;;;;;;;8.24;61.83;95840.19;5039337;28;20239;-64
2022/12/05 09:45:13;;;;;;;6.93;4.30;;;;;;;8.24;61.11;95829.72;5038352;28;20205;-70
2022/12/05 09:47:59;;;;;;;8.90;4.87;;;;;;;7.86;62.40;95830.84;5032976;28;20527;-68
2022/12/05 09:50:27;;;;;;;8.73;5.20;;;;;;;7.82;62.64;95824.16;5036820;28;20213;-65
2022/12/05 09:52:58;;;;;;;7.87;5.33;;;;;;;7.86;63.25;95822.16;5043086;28;20220;-66
2022/12/05 09:55:33;;;;;;;7.63;5.93;;;;;;;7.99;62.72;95816.81;5039982;28;20206;-64
2022/12/05 09:58:01;;;;;;;7.20;5.97;;;;;;;8.07;62.95;95814.44;5037614;28;20224;-64
2022/12/05 10:00:28;;;;;;;9.53;6.93;;;;;;;8.10;62.64;95812.44;5039895;28;20234;-64
2022/12/05 10:03:37;;;;;;;7.63;5.80;;;;;;;8.30;62.23;95817.91;5042522;28;20240;-64
2022/12/05 10:06:25;;;;;;;9.50;6.83;;;;;;;8.04;63.20;95810.25;5036069;28;20229;-71
2022/12/05 10:09:10;;;;;;;8.27;6.53;;;;;;;8.27;62.39;95805.88;5036518;28;20189;-72
2022/12/05 10:11:46;;;;;;;8.47;6.13;;;;;;;8.35;61.81;95810.53;5038824;28;20332;-73
2022/12/05 10:14:17;;;;;;;8.40;7.07;;;;;;;8.44;61.90;95804.59;5037540;28;20200;-71
2022/12/05 10:16:51;;;;;;;7.47;6.20;;;;;;;8.43;62.31;95802.13;5039323;28;20194;-71
2022/12/05 10:19:39;;;;;;;9.63;6.80;;;;;;;8.34;61.84;95799.22;5050361;28;20239;-71
2022/12/05 10:22:19;;;;;;;7.50;6.10;;;;;;;8.33;61.86;95797.53;5036475;28;20216;-71
2022/12/05 10:24:55;;;;;;;8.67;6.67;;;;;;;8.43;61.53;95791.63;5053751;28;20216;-71
2022/12/05 10:27:37;;;;;;;9.87;5.90;;;;;;;8.56;60.84;95794.97;5040021;28;20193;-69
2022/12/05 10:30:04;;;;;;;5.83;5.23;;;;;;;8.67;60.27;95799.38;5037634;28;20200;-72
2022/12/05 10:32:36;;;;;;;5.60;4.70;;;;;;;8.71;60.05;95791.13;5034657;28;20193;-70
2022/12/05 10:35:27;;;;;;;6.73;5.37;;;;;;;8.68;60.00;95796.59;5038424;28;20210;-71
2022/12/05 10:38:03;;;;;;;6.73;4.83;;;;;;;8.67;60.39;95789.72;5035349;28;20635;-68
2022/12/05 10:40:37;;;;;;;5.87;4.40;;;;;;;8.68;60.17;95793.16;5040128;28;20201;-70
2022/12/05 10:43:09;;;;;;;6.63;5.23;;;;;;;8.71;60.35;95785.88;5019181;28;20213;-67
2022/12/05 10:45:46;;;;;;;6.13;5.03;;;;;;;8.76;60.15;95786.34;5022210;28;20256;-65
2022/12/05 10:48:14;;;;;;;7.67;5.87;;;;;;;8.72;60.58;95781.50;5039732;28;20334;-67
2022/12/05 10:50:42;;;;;;;5.67;5.17;;;;;;;8.48;61.20;95779.84;5039210;28;20190;-66
2022/12/05 10:53:12;;;;;;;7.53;6.10;;;;;;;8.43;61.52;95771.50;5040470;28;20216;-66
2022/12/05 10:55:46;;;;;;;11.73;7.73;;;;;;;8.43;62.11;95775.91;5040605;28;20186;-66
2022/12/05 10:58:23;;;;;;;8.00;6.83;;;;;;;8.49;61.87;95776.25;5034098;28;20305;-66
2022/12/05 11:00:54;;;;;;;7.70;6.43;;;;;;;8.55;61.83;95774.94;5041145;28;20224;-66
2022/12/05 11:03:41;;;;;;;7.37;6.20;;;;;;;8.73;61.22;95776.09;5043453;28;20213;-66
2022/12/05 11:06:22;;;;;;;7.03;6.33;;;;;;;8.38;61.68;95766.59;5040821;28;20244;-67
2022/12/05 11:08:57;;;;;;;8.13;6.37;;;;;;;8.47;61.84;95772.91;5041976;28;20194;-66
2022/12/05 11:11:27;;;;;;;8.63;6.53;;;;;;;8.54;61.52;95771.50;5055498;28;20193;-66
2022/12/05 11:14:19;;;;;;;11.93;7.60;;;;;;;8.56;62.07;95768.75;5053618;28;20209;-66
2022/12/05 11:16:55;;;;;;;8.40;7.30;;;;;;;8.68;61.68;95761.69;5052530;28;20281;-66
2022/12/05 11:19:20;;;;;;;13.37;8.20;;;;;;;8.48;61.95;95760.66;5040744;28;20270;-66
2022/12/05 11:21:47;;;;;;;14.97;7.53;;;;;;;8.16;63.06;95762.19;5044814;28;20189;-66
2022/12/05 11:24:26;;;;;;;11.23;7.53;;;;;;;8.39;62.42;95760.44;5040419;28;20197;-67
2022/12/05 11:26:52;;;;;;;8.47;6.93;;;;;;;8.36;62.43;95754.56;5036219;28;20276;-67
2022/12/05 11:29:28;;;;;;;8.17;6.73;;;;;;;8.30;62.24;95755.03;5038742;28;20272;-67
2022/12/05 11:31:53;;;;;;;10.17;7.60;;;;;;;8.25;62.36;95746.69;5043994;28;20193;-67
2022/12/05 11:34:26;;;;;;;9.23;7.30;;;;;;;8.14;62.99;95750.16;5047658;28;20196;-66
2022/12/05 11:37:05;;;;;;;10.90;7.87;;;;;;;8.34;62.69;95740.72;5041305;28;20224;-67
2022/12/05 11:39:31;;;;;;;10.17;7.63;;;;;;;8.53;62.26;95741.00;5045158;28;20217;-67
2022/12/05 11:42:26;;;;;;;9.67;8.13;;;;;;;8.26;62.80;95730.00;5036141;28;20200;-67
2022/12/05 11:45:09;;;;;;;9.13;7.70;;;;;;;8.35;62.82;95734.56;5056315;28;20233;-68
2022/12/05 11:47:53;;;;;;;8.40;7.50;;;;;;;8.41;62.66;95730.63;5036549;28;20190;-68
2022/12/05 11:51:06;;;;;;;9.27;7.30;;;;;;;8.53;62.15;95724.44;5039393;28;20379;-68
2022/12/05 11:54:09;;;;;;;12.67;7.20;;;;;;;8.65;61.82;95723.44;4967245;28;20188;-68
2022/12/05 11:56:42;;;;;;;11.67;7.90;;;;;;;8.46;62.27;95718.84;4961282;28;20305;-70
2022/12/05 11:59:39;;;;;;;10.23;7.53;;;;;;;8.43;62.20;95713.03;4980870;28;20205;-70
2022/12/05 12:02:29;;;;;;;10.23;7.13;;;;;;;8.38;62.48;95710.72;4965229;28;20278;-69
2022/12/05 12:05:03;;;;;;;10.60;7.90;;;;;;;8.52;62.12;95714.91;4981457;28;20227;-68